createdAt,value
2018-12-07T00:01:33.951Z,4.90
2018-12-07T00:04:02.462Z,4.93
2018-12-07T00:06:30.971Z,4.70
2018-12-07T00:08:59.588Z,4.33
2018-12-07T00:11:28.142Z,4.77
2018-12-07T00:13:56.636Z,4.37
2018-12-07T00:16:25.248Z,4.40
2018-12-07T00:18:53.838Z,5.00
2018-12-07T00:21:22.402Z,4.40
2018-12-07T00:23:51.035Z,3.90
2018-12-07T00:26:19.724Z,4.07
2018-12-07T00:28:48.275Z,4.10
2018-12-07T00:31:16.768Z,3.43
2018-12-07T00:33:45.280Z,3.57
2018-12-07T00:36:13.747Z,3.80
2018-12-07T00:38:42.664Z,3.33
2018-12-07T00:41:11.192Z,3.97
2018-12-07T00:43:39.731Z,3.37
2018-12-07T00:46:08.294Z,3.77
2018-12-07T00:48:36.916Z,3.57
2018-12-07T00:51:05.406Z,3.73
2018-12-07T00:53:33.984Z,3.87
2018-12-07T00:56:02.463Z,3.33
2018-12-07T00:58:30.968Z,3.60
2018-12-07T01:00:59.518Z,3.03
2018-12-07T01:03:28.012Z,3.23
2018-12-07T01:05:56.486Z,3.23
2018-12-07T01:08:25.087Z,3.10
2018-12-07T01:10:53.671Z,2.70
2018-12-07T01:13:22.268Z,2.70
2018-12-07T01:15:51.379Z,2.83
2018-12-07T01:18:20.021Z,2.07
2018-12-07T01:20:48.526Z,2.90
2018-12-07T01:23:17.046Z,2.50
2018-12-07T01:25:45.538Z,2.50
2018-12-07T01:28:14.630Z,2.80
2018-12-07T01:30:43.194Z,2.50
2018-12-07T01:33:12.307Z,2.67
2018-12-07T01:35:40.930Z,2.43
2018-12-07T01:38:09.815Z,2.27
2018-12-07T01:40:38.379Z,2.50
2018-12-07T01:43:06.969Z,2.93
2018-12-07T01:45:35.530Z,2.23
2018-12-07T01:48:04.067Z,2.20
2018-12-07T01:50:32.595Z,2.57
2018-12-07T01:53:01.128Z,2.90
2018-12-07T01:55:29.707Z,2.53
2018-12-07T01:57:58.346Z,2.33
2018-12-07T02:00:26.844Z,2.10
2018-12-07T02:02:55.361Z,2.00
2018-12-07T02:05:25.278Z,2.20
2018-12-07T02:07:53.878Z,2.10
2018-12-07T02:10:22.447Z,2.57
2018-12-07T02:12:50.962Z,2.33
2018-12-07T02:15:19.763Z,1.90
2018-12-07T02:17:48.333Z,2.20
2018-12-07T02:20:16.914Z,2.40
2018-12-07T02:22:45.535Z,2.00
2018-12-07T02:25:14.729Z,1.90
2018-12-07T02:27:48.627Z,1.70
2018-12-07T02:30:17.306Z,1.67
2018-12-07T02:32:45.865Z,1.73
2018-12-07T02:35:14.409Z,1.70
2018-12-07T02:37:42.961Z,1.70
2018-12-07T02:40:11.783Z,1.70
2018-12-07T02:42:40.448Z,1.60
2018-12-07T02:45:09.155Z,1.47
2018-12-07T02:47:37.760Z,1.30
2018-12-07T02:50:06.372Z,1.30
2018-12-07T02:52:34.907Z,1.77
2018-12-07T02:55:03.755Z,1.43
2018-12-07T02:57:32.251Z,1.20
2018-12-07T03:00:00.813Z,1.20
2018-12-07T03:02:29.391Z,1.30
2018-12-07T03:04:57.982Z,1.60
2018-12-07T03:07:26.555Z,1.10
2018-12-07T03:09:55.498Z,1.10
2018-12-07T03:12:24.034Z,1.00
2018-12-07T03:14:52.627Z,1.00
2018-12-07T03:17:21.233Z,1.00
2018-12-07T03:19:49.910Z,1.50
2018-12-07T03:22:18.623Z,0.90
2018-12-07T03:24:47.212Z,1.00
2018-12-07T03:27:15.678Z,1.17
2018-12-07T03:29:44.634Z,0.90
2018-12-07T03:32:14.093Z,0.90
2018-12-07T03:34:42.679Z,1.23
2018-12-07T03:37:17.879Z,0.80
2018-12-07T03:39:46.908Z,1.07
2018-12-07T03:42:15.488Z,1.00
2018-12-07T03:44:44.123Z,0.93
2018-12-07T03:47:12.779Z,1.03
2018-12-07T03:49:41.372Z,1.23
2018-12-07T03:52:09.955Z,1.10
2018-12-07T03:54:38.624Z,1.40
2018-12-07T03:57:07.092Z,1.30
2018-12-07T03:59:36.256Z,1.20
2018-12-07T04:02:05.601Z,1.30
2018-12-07T04:04:34.123Z,1.10
2018-12-07T04:07:02.816Z,1.10
2018-12-07T04:09:31.413Z,1.10
2018-12-07T04:11:59.987Z,1.40
2018-12-07T04:14:28.492Z,1.20
2018-12-07T04:16:57.055Z,1.10
2018-12-07T04:19:25.664Z,0.97
2018-12-07T04:21:54.224Z,1.30
2018-12-07T04:24:22.738Z,1.10
2018-12-07T04:26:51.297Z,1.33
2018-12-07T04:29:19.818Z,1.10
2018-12-07T04:31:48.319Z,1.20
2018-12-07T04:34:16.848Z,1.10
2018-12-07T04:36:45.412Z,1.20
2018-12-07T04:39:13.919Z,1.20
2018-12-07T04:41:43.099Z,1.30
2018-12-07T04:44:11.591Z,1.03
2018-12-07T04:46:40.101Z,1.10
2018-12-07T04:49:08.595Z,1.00
2018-12-07T04:51:37.106Z,1.00
2018-12-07T04:54:05.712Z,0.90
2018-12-07T04:56:34.197Z,0.90
2018-12-07T04:59:02.909Z,1.07
2018-12-07T05:01:31.393Z,1.13
2018-12-07T05:03:59.976Z,1.00
2018-12-07T05:06:28.637Z,0.83
2018-12-07T05:08:57.337Z,0.90
2018-12-07T05:11:26.003Z,1.00
2018-12-07T05:13:54.503Z,1.20
2018-12-07T05:16:23.096Z,1.40
2018-12-07T05:18:51.679Z,1.10
2018-12-07T05:21:20.322Z,0.90
2018-12-07T05:23:48.863Z,1.20
2018-12-07T05:26:17.439Z,0.90
2018-12-07T05:28:46.061Z,0.90
2018-12-07T05:31:14.661Z,0.77
2018-12-07T05:33:43.548Z,0.80
2018-12-07T05:36:12.559Z,0.90
2018-12-07T05:38:41.126Z,1.00
2018-12-07T05:41:09.683Z,0.80
2018-12-07T05:43:48.112Z,0.77
2018-12-07T05:46:16.645Z,0.70
2018-12-07T05:48:45.698Z,0.70
2018-12-07T05:51:14.834Z,0.70
2018-12-07T05:53:43.449Z,0.67
2018-12-07T05:56:14.015Z,0.70
2018-12-07T05:58:44.421Z,0.70
2018-12-07T06:01:14.959Z,0.80
2018-12-07T06:03:43.695Z,0.70
2018-12-07T06:06:13.310Z,0.70
2018-12-07T06:08:42.388Z,0.60
2018-12-07T06:11:11.195Z,0.70
2018-12-07T06:13:40.023Z,0.80
2018-12-07T06:16:08.768Z,0.70
2018-12-07T06:18:37.638Z,0.60
2018-12-07T06:21:07.059Z,0.70
2018-12-07T06:23:35.677Z,0.87
2018-12-07T06:26:04.661Z,0.60
2018-12-07T06:28:33.719Z,0.60
2018-12-07T06:31:02.607Z,0.60
2018-12-07T06:33:32.136Z,0.70
2018-12-07T06:36:01.028Z,0.60
2018-12-07T06:38:29.736Z,0.60
2018-12-07T06:40:58.910Z,0.67
2018-12-07T06:43:27.744Z,0.63
2018-12-07T06:45:56.346Z,0.60
2018-12-07T06:48:25.418Z,0.47
2018-12-07T06:50:54.493Z,0.50
2018-12-07T06:53:23.004Z,0.57
2018-12-07T06:55:51.503Z,0.50
2018-12-07T06:58:20.027Z,0.63
2018-12-07T07:00:48.835Z,0.53
2018-12-07T07:03:17.341Z,0.60
2018-12-07T07:05:45.962Z,0.60
2018-12-07T07:08:15.119Z,0.60
2018-12-07T07:10:43.608Z,0.60
2018-12-07T07:13:12.112Z,0.60
2018-12-07T07:15:40.723Z,0.73
2018-12-07T07:18:09.215Z,0.60
2018-12-07T07:20:37.864Z,0.60
2018-12-07T07:23:06.744Z,0.57
2018-12-07T07:25:35.386Z,0.67
2018-12-07T07:28:03.998Z,0.60
2018-12-07T07:30:32.517Z,0.80
2018-12-07T07:33:01.216Z,0.70
2018-12-07T07:35:29.817Z,0.80
2018-12-07T07:37:58.373Z,1.00
2018-12-07T07:40:26.938Z,0.70
2018-12-07T07:42:55.527Z,0.60
2018-12-07T07:45:24.300Z,0.80
2018-12-07T07:47:52.923Z,0.77
2018-12-07T07:50:21.542Z,1.00
2018-12-07T07:52:51.107Z,0.90
2018-12-07T07:55:19.672Z,1.00
2018-12-07T07:57:48.287Z,1.50
2018-12-07T08:00:16.851Z,1.93
2018-12-07T08:02:45.467Z,1.60
2018-12-07T08:05:14.131Z,2.27
2018-12-07T08:07:42.725Z,2.23
2018-12-07T08:10:11.327Z,2.17
2018-12-07T08:12:39.935Z,1.87
2018-12-07T08:15:08.813Z,2.10
2018-12-07T08:17:37.390Z,2.50
2018-12-07T08:20:06.114Z,2.47
2018-12-07T08:22:34.677Z,2.37
2018-12-07T08:25:03.487Z,2.60
2018-12-07T08:27:32.675Z,2.30
2018-12-07T08:30:01.190Z,2.50
2018-12-07T08:32:29.732Z,2.57
2018-12-07T08:34:58.314Z,2.40
2018-12-07T08:37:26.918Z,1.90
2018-12-07T08:39:55.511Z,1.93
2018-12-07T08:42:24.114Z,2.20
2018-12-07T08:44:52.679Z,2.37
2018-12-07T08:47:21.229Z,2.27
2018-12-07T08:49:55.893Z,1.87
2018-12-07T08:52:24.627Z,1.53
2018-12-07T08:54:53.372Z,2.13
2018-12-07T08:57:22.094Z,1.90
2018-12-07T08:59:50.652Z,1.87
2018-12-07T09:02:19.314Z,2.10
2018-12-07T09:04:48.526Z,2.40
2018-12-07T09:07:17.837Z,2.17
2018-12-07T09:09:46.546Z,2.90
2018-12-07T09:12:15.156Z,2.40
2018-12-07T09:14:43.723Z,2.40
2018-12-07T09:17:12.346Z,2.67
2018-12-07T09:19:41.439Z,3.03
2018-12-07T09:22:10.527Z,3.60
2018-12-07T09:24:39.149Z,3.07
2018-12-07T09:27:07.879Z,3.43
2018-12-07T09:29:37.081Z,3.33
2018-12-07T09:32:05.987Z,3.53
2018-12-07T09:34:35.062Z,3.20
2018-12-07T09:37:03.601Z,3.57
2018-12-07T09:39:32.197Z,3.57
2018-12-07T09:42:01.611Z,3.37
2018-12-07T09:44:30.158Z,3.00
2018-12-07T09:46:58.772Z,2.87
2018-12-07T09:49:27.262Z,3.23
2018-12-07T09:51:55.834Z,3.00
2018-12-07T09:54:24.394Z,2.80
2018-12-07T09:56:52.912Z,2.77
2018-12-07T09:59:22.147Z,2.80
2018-12-07T10:01:50.709Z,2.63
2018-12-07T10:04:19.292Z,3.03
2018-12-07T10:06:47.902Z,3.00
2018-12-07T10:09:17.086Z,3.00
2018-12-07T10:11:45.674Z,2.70
2018-12-07T10:14:14.246Z,2.73
2018-12-07T10:16:42.834Z,3.17
2018-12-07T10:19:11.889Z,2.60
2018-12-07T10:21:40.447Z,2.20
2018-12-07T10:24:09.057Z,2.20
2018-12-07T10:26:37.624Z,2.33
2018-12-07T10:29:06.262Z,2.10
2018-12-07T10:31:34.799Z,2.07
2018-12-07T10:34:03.476Z,2.47
2018-12-07T10:36:31.992Z,2.33
2018-12-07T10:39:01.216Z,2.43
2018-12-07T10:41:29.746Z,2.43
2018-12-07T10:43:58.559Z,2.27
2018-12-07T10:46:27.150Z,2.30
2018-12-07T10:48:56.710Z,1.90
2018-12-07T10:51:25.243Z,2.23
2018-12-07T10:53:54.167Z,1.73
2018-12-07T10:56:22.757Z,1.57
2018-12-07T10:58:51.326Z,1.90
2018-12-07T11:01:25.363Z,1.60
2018-12-07T11:03:59.154Z,2.03
2018-12-07T11:06:33.515Z,1.10
2018-12-07T11:09:06.212Z,1.33
2018-12-07T11:11:44.765Z,1.10
2018-12-07T11:14:15.587Z,0.90
2018-12-07T11:16:49.487Z,0.70
2018-12-07T11:19:23.246Z,0.97
2018-12-07T11:21:57.074Z,0.63
2018-12-07T11:24:30.739Z,0.63
2018-12-07T11:27:04.606Z,0.60
2018-12-07T11:29:38.420Z,0.37
2018-12-07T11:32:12.644Z,0.30
2018-12-07T11:34:46.435Z,0.30
2018-12-07T11:37:15.118Z,0.30
2018-12-07T11:39:43.731Z,0.40
2018-12-07T11:42:12.355Z,0.30
2018-12-07T11:44:40.859Z,0.30
2018-12-07T11:47:09.875Z,0.30
2018-12-07T11:49:38.394Z,0.20
2018-12-07T11:52:07.002Z,0.20
2018-12-07T11:54:35.571Z,0.20
2018-12-07T11:57:04.419Z,0.23
2018-12-07T11:59:33.129Z,0.30
2018-12-07T12:02:01.774Z,0.30
2018-12-07T12:04:30.258Z,0.40
2018-12-07T12:06:59.533Z,0.20
2018-12-07T12:09:28.046Z,0.30
2018-12-07T12:11:56.641Z,0.60
2018-12-07T12:14:25.294Z,0.40
2018-12-07T12:16:53.907Z,0.50
2018-12-07T12:19:22.481Z,0.40
2018-12-07T12:21:50.993Z,0.30
2018-12-07T12:24:19.563Z,0.30
2018-12-07T12:26:48.186Z,0.30
2018-12-07T12:29:16.761Z,0.30
2018-12-07T12:31:45.307Z,0.30
2018-12-07T12:34:14.131Z,0.30
2018-12-07T12:36:42.641Z,0.30
2018-12-07T12:39:11.201Z,0.30
2018-12-07T12:41:46.596Z,0.30
2018-12-07T12:44:10.461Z,0.30
2018-12-07T12:46:39.690Z,0.20
2018-12-07T12:49:08.362Z,0.27
2018-12-07T12:51:38.133Z,0.37
2018-12-07T12:54:06.671Z,0.20
2018-12-07T12:56:35.252Z,0.40
2018-12-07T12:59:03.795Z,0.40
2018-12-07T13:01:32.428Z,0.40
2018-12-07T13:04:01.579Z,0.40
2018-12-07T13:06:30.178Z,0.40
2018-12-07T13:08:58.726Z,0.40
2018-12-07T13:11:27.275Z,0.40
2018-12-07T13:13:55.839Z,0.40
2018-12-07T13:16:24.442Z,0.30
2018-12-07T13:18:53.003Z,0.40
2018-12-07T13:21:21.613Z,0.40
2018-12-07T13:23:50.262Z,0.40
2018-12-07T13:26:18.797Z,0.40
2018-12-07T13:28:47.366Z,0.40
2018-12-07T13:31:15.976Z,0.40
2018-12-07T13:33:44.535Z,0.40
2018-12-07T13:36:13.155Z,0.40
2018-12-07T13:38:43.184Z,0.43
2018-12-07T13:41:11.911Z,0.40
2018-12-07T13:43:41.635Z,0.30
2018-12-07T13:46:10.599Z,0.40
2018-12-07T13:48:39.361Z,0.30
2018-12-07T13:51:08.296Z,0.50
2018-12-07T13:53:38.825Z,0.30
2018-12-07T13:56:07.468Z,0.33
2018-12-07T13:58:36.187Z,0.40
2018-12-07T14:01:05.105Z,0.40
2018-12-07T14:03:33.674Z,0.50
2018-12-07T14:06:02.597Z,0.70
2018-12-07T14:08:31.411Z,0.53
2018-12-07T14:11:00.340Z,0.40
2018-12-07T14:13:29.031Z,0.37
2018-12-07T14:15:57.686Z,0.30
2018-12-07T14:18:26.396Z,0.50
2018-12-07T14:20:55.050Z,1.00
2018-12-07T14:23:23.689Z,0.60
2018-12-07T14:25:52.292Z,0.40
2018-12-07T14:28:21.234Z,0.50
2018-12-07T14:30:49.895Z,0.47
2018-12-07T14:33:19.194Z,0.80
2018-12-07T14:35:47.985Z,0.40
2018-12-07T14:38:17.459Z,1.03
2018-12-07T14:40:46.274Z,0.70
2018-12-07T14:43:15.975Z,0.40
2018-12-07T14:45:44.594Z,0.50
2018-12-07T14:48:14.247Z,0.70
2018-12-07T14:50:42.973Z,0.50
2018-12-07T14:53:11.936Z,1.00
2018-12-07T14:55:41.581Z,0.53
2018-12-07T14:58:10.422Z,0.50
2018-12-07T15:00:39.201Z,0.60
2018-12-07T15:03:08.559Z,0.97
2018-12-07T15:05:37.263Z,1.00
2018-12-07T15:08:06.141Z,0.70
2018-12-07T15:10:34.731Z,0.60
2018-12-07T15:13:03.369Z,0.80
2018-12-07T15:15:32.235Z,0.70
2018-12-07T15:18:00.984Z,0.93
2018-12-07T15:20:30.166Z,1.20
2018-12-07T15:22:59.360Z,1.40
2018-12-07T15:25:28.234Z,1.10
2018-12-07T15:27:56.943Z,0.90
2018-12-07T15:30:28.392Z,1.00
2018-12-07T15:32:57.290Z,0.80
2018-12-07T15:35:26.117Z,0.90
2018-12-07T15:37:54.881Z,1.20
2018-12-07T15:40:23.543Z,1.20
2018-12-07T15:42:52.431Z,1.00
2018-12-07T15:45:21.167Z,1.37
2018-12-07T15:47:49.820Z,1.60
2018-12-07T15:50:25.115Z,1.27
2018-12-07T15:52:49.356Z,1.10
2018-12-07T15:55:18.071Z,1.23
2018-12-07T15:57:46.751Z,0.90
2018-12-07T16:00:15.533Z,0.90
2018-12-07T16:02:44.221Z,1.20
2018-12-07T16:05:13.015Z,2.30
2018-12-07T16:07:41.702Z,2.50
2018-12-07T16:10:10.344Z,2.90
2018-12-07T16:12:39.171Z,5.53
2018-12-07T16:15:08.252Z,5.33
2018-12-07T16:17:36.767Z,4.70
2018-12-07T16:20:10.308Z,4.33
2018-12-07T16:22:39.167Z,2.97
2018-12-07T16:25:08.053Z,2.73
2018-12-07T16:27:36.738Z,2.13
2018-12-07T16:30:07.223Z,1.53
2018-12-07T16:32:36.130Z,1.33
2018-12-07T16:35:05.668Z,1.00
2018-12-07T16:37:34.546Z,0.80
2018-12-07T16:40:03.894Z,0.97
2018-12-07T16:42:32.744Z,0.70
2018-12-07T16:45:01.742Z,0.80
2018-12-07T16:47:30.524Z,0.90
2018-12-07T16:49:59.420Z,0.70
2018-12-07T16:52:28.187Z,1.07
2018-12-07T16:54:56.770Z,0.70
2018-12-07T16:57:25.310Z,3.10
2018-12-07T16:59:54.233Z,2.10
2018-12-07T17:02:22.803Z,1.60
2018-12-07T17:04:53.854Z,1.47
2018-12-07T17:07:23.588Z,1.00
2018-12-07T17:09:54.906Z,0.90
2018-12-07T17:12:24.861Z,0.70
2018-12-07T17:14:56.246Z,0.90
2018-12-07T17:17:26.335Z,0.80
2018-12-07T17:19:56.824Z,0.90
2018-12-07T17:22:28.615Z,0.73
2018-12-07T17:24:59.679Z,0.60
2018-12-07T17:27:30.610Z,1.30
2018-12-07T17:30:06.289Z,1.00
2018-12-07T17:32:38.237Z,1.00
2018-12-07T17:35:10.695Z,0.90
2018-12-07T17:37:41.048Z,0.90
2018-12-07T17:40:09.926Z,0.90
2018-12-07T17:42:38.977Z,0.70
2018-12-07T17:45:07.892Z,0.70
2018-12-07T17:47:36.541Z,0.70
2018-12-07T17:50:06.517Z,0.70
2018-12-07T17:52:35.159Z,2.43
2018-12-07T17:55:03.756Z,0.70
2018-12-07T17:57:32.562Z,0.80
2018-12-07T18:00:01.531Z,0.70
2018-12-07T18:02:31.933Z,0.53
2018-12-07T18:05:01.412Z,0.60
2018-12-07T18:07:33.387Z,0.70
2018-12-07T18:10:02.527Z,0.60
2018-12-07T18:12:31.213Z,0.70
2018-12-07T18:15:00.485Z,0.60
2018-12-07T18:17:29.864Z,0.70
2018-12-07T18:19:58.943Z,0.73
2018-12-07T18:22:28.920Z,0.70
2018-12-07T18:24:57.963Z,0.90
2018-12-07T18:27:26.603Z,0.90
2018-12-07T18:29:55.511Z,1.40
2018-12-07T18:32:25.243Z,1.10
2018-12-07T18:34:54.368Z,1.00
2018-12-07T18:37:23.758Z,1.00
2018-12-07T18:39:52.583Z,0.80
2018-12-07T18:42:25.593Z,0.73
2018-12-07T18:44:55.600Z,0.70
2018-12-07T18:47:24.943Z,0.80
2018-12-07T18:49:58.481Z,0.80
2018-12-07T18:52:28.705Z,0.90
2018-12-07T18:54:57.629Z,0.80
2018-12-07T18:57:26.984Z,0.63
2018-12-07T18:59:56.004Z,1.00
2018-12-07T19:02:24.852Z,0.80
2018-12-07T19:04:53.784Z,0.80
2018-12-07T19:07:22.860Z,0.70
2018-12-07T19:09:51.782Z,0.70
2018-12-07T19:12:20.614Z,0.70
2018-12-07T19:14:49.269Z,1.00
2018-12-07T19:17:18.268Z,0.80
2018-12-07T19:19:47.228Z,0.90
2018-12-07T19:22:16.859Z,0.80
2018-12-07T19:24:47.946Z,0.97
2018-12-07T19:27:17.081Z,0.80
2018-12-07T19:29:47.361Z,0.70
2018-12-07T19:32:16.632Z,0.80
2018-12-07T19:34:48.147Z,0.70
2018-12-07T19:37:18.196Z,0.83
2018-12-07T19:39:47.148Z,0.80
2018-12-07T19:42:17.221Z,0.90
2018-12-07T19:44:47.488Z,0.80
2018-12-07T19:47:18.478Z,1.00
2018-12-07T19:49:49.761Z,0.80
2018-12-07T19:52:20.785Z,1.00
2018-12-07T19:54:49.745Z,1.00
2018-12-07T19:57:20.235Z,1.20
2018-12-07T19:59:50.291Z,0.90
2018-12-07T20:02:21.075Z,1.20
2018-12-07T20:04:52.552Z,0.80
2018-12-07T20:07:21.872Z,1.40
2018-12-07T20:09:50.625Z,1.00
2018-12-07T20:12:19.559Z,1.13
2018-12-07T20:14:48.175Z,1.00
2018-12-07T20:17:16.804Z,0.73
2018-12-07T20:19:45.702Z,1.10
2018-12-07T20:22:14.574Z,1.13
2018-12-07T20:24:44.937Z,3.70
2018-12-07T20:27:13.746Z,0.97
2018-12-07T20:29:42.485Z,0.70
2018-12-07T20:32:11.135Z,0.80
2018-12-07T20:34:40.405Z,1.70
2018-12-07T20:37:09.563Z,1.13
2018-12-07T20:39:38.753Z,0.90
2018-12-07T20:42:07.719Z,0.90
2018-12-07T20:44:36.633Z,0.77
2018-12-07T20:47:06.631Z,1.00
2018-12-07T20:49:35.617Z,1.17
2018-12-07T20:52:04.400Z,0.80
2018-12-07T20:54:33.118Z,0.90
2018-12-07T20:57:02.205Z,0.80
2018-12-07T20:59:31.768Z,0.70
2018-12-07T21:02:01.140Z,0.67
2018-12-07T21:04:36.271Z,0.73
2018-12-07T21:07:21.466Z,0.80
2018-12-07T21:10:28.991Z,0.60
2018-12-07T21:15:08.671Z,0.70
2018-12-07T21:17:38.649Z,0.70
2018-12-07T21:20:17.665Z,0.80
2018-12-07T21:22:46.371Z,0.53
2018-12-07T21:25:15.261Z,0.60
2018-12-07T21:27:44.611Z,1.63
2018-12-07T21:30:40.834Z,1.30
2018-12-07T21:33:10.026Z,0.50
2018-12-07T21:36:40.972Z,0.60
2018-12-07T21:39:24.711Z,0.50
2018-12-07T21:41:53.274Z,0.60
2018-12-07T21:44:21.942Z,0.70
2018-12-07T21:46:50.522Z,0.50
2018-12-07T21:49:20.099Z,0.43
2018-12-07T21:52:23.546Z,0.60
2018-12-07T21:54:54.079Z,0.50
2018-12-07T21:57:24.430Z,0.50
2018-12-07T21:59:53.312Z,0.53
2018-12-07T22:02:22.565Z,0.53
2018-12-07T22:04:51.593Z,0.40
2018-12-07T22:07:20.435Z,0.47
2018-12-07T22:09:49.506Z,0.50
2018-12-07T22:12:18.695Z,0.40
2018-12-07T22:14:47.513Z,1.00
2018-12-07T22:17:16.506Z,0.47
2018-12-07T22:19:45.287Z,0.73
2018-12-07T22:22:13.903Z,0.50
2018-12-07T22:24:42.471Z,0.40
2018-12-07T22:27:11.350Z,0.50
2018-12-07T22:29:40.180Z,0.40
2018-12-07T22:32:08.968Z,0.40
2018-12-07T22:34:38.192Z,0.30
2018-12-07T22:37:06.834Z,0.40
2018-12-07T22:39:35.403Z,0.70
2018-12-07T22:42:04.172Z,0.30
2018-12-07T22:44:33.206Z,0.30
2018-12-07T22:47:02.100Z,0.47
2018-12-07T22:49:30.798Z,0.40
2018-12-07T22:51:59.291Z,0.30
2018-12-07T22:54:27.883Z,0.30
2018-12-07T22:56:56.450Z,0.83
2018-12-07T22:59:24.995Z,0.60
2018-12-07T23:01:53.648Z,0.40
2018-12-07T23:04:22.993Z,0.53
2018-12-07T23:06:51.558Z,0.40
2018-12-07T23:09:20.172Z,0.57
2018-12-07T23:11:48.724Z,0.37
2018-12-07T23:14:17.351Z,0.50
2018-12-07T23:16:45.967Z,0.57
2018-12-07T23:19:14.475Z,0.60
2018-12-07T23:21:42.992Z,0.50
2018-12-07T23:24:11.995Z,0.70
2018-12-07T23:26:40.482Z,0.47
2018-12-07T23:29:20.671Z,0.50
2018-12-07T23:31:49.268Z,0.50
2018-12-07T23:34:17.819Z,0.60
2018-12-07T23:36:46.374Z,0.70
2018-12-07T23:39:14.926Z,0.70
2018-12-07T23:41:43.498Z,0.60
2018-12-07T23:44:12.858Z,0.50
2018-12-07T23:46:41.687Z,0.60
2018-12-07T23:49:10.270Z,0.57
2018-12-07T23:51:38.882Z,0.50
2018-12-07T23:54:07.478Z,0.50
2018-12-07T23:56:35.956Z,0.57
2018-12-07T23:59:04.542Z,0.60
